Time;durP1;ratioP1;P1;durP2;ratioP2;P2;SDS_P1;SDS_P2;PMS_P1;PMS_P2;Temp;Humidity;BMP_temperature;BMP_pressure;BME280_temperature;BME280_humidity;BME280_pressure;Samples;Min_cycle;Max_cycle;Signal;HPM_P1;HPM_P2
2023/06/28 00:00:35;;;;;;;10.38;2.70;;;;;;;;;;5035445;28;20136;-75
2023/06/28 00:03:01;;;;;;;9.38;2.80;;;;;;;;;;5035328;28;20134;-73
2023/06/28 00:05:27;;;;;;;10.60;3.15;;;;;;;;;;5036181;28;20041;-74
2023/06/28 00:07:53;;;;;;;12.52;3.15;;;;;;;;;;5035240;28;20517;-74
2023/06/28 00:10:19;;;;;;;10.93;3.55;;;;;;;;;;5035106;28;20037;-73
2023/06/28 00:12:45;;;;;;;11.18;3.28;;;;;;;;;;5036430;28;20072;-74
2023/06/28 00:15:11;;;;;;;8.40;2.63;;;;;;;;;;5035137;28;20518;-74
2023/06/28 00:17:37;;;;;;;9.65;3.30;;;;;;;;;;5035752;28;20050;-74
2023/06/28 00:20:07;;;;;;;12.07;3.58;;;;;;;;;;5036706;28;20095;-73
2023/06/28 00:22:39;;;;;;;11.40;3.20;;;;;;;;;;5036497;28;20041;-74
2023/06/28 00:25:06;;;;;;;12.63;3.50;;;;;;;;;;5036949;28;20041;-74
2023/06/28 00:27:32;;;;;;;11.23;3.70;;;;;;;;;;5037284;28;20076;-74
2023/06/28 00:29:58;;;;;;;9.25;3.58;;;;;;;;;;5035759;28;20041;-74
2023/06/28 00:32:25;;;;;;;11.25;3.65;;;;;;;;;;5035163;28;20488;-75
2023/06/28 00:34:51;;;;;;;12.27;3.33;;;;;;;;;;5034946;28;20045;-74
2023/06/28 00:37:17;;;;;;;11.73;3.95;;;;;;;;;;5033676;28;20487;-75
2023/06/28 00:39:43;;;;;;;11.25;3.58;;;;;;;;;;5021754;28;20041;-75
2023/06/28 00:42:09;;;;;;;11.45;3.35;;;;;;;;;;5034678;28;20064;-75
2023/06/28 00:44:35;;;;;;;12.38;3.92;;;;;;;;;;5035610;28;20048;-74
2023/06/28 00:47:03;;;;;;;10.93;3.38;;;;;;;;;;5032620;28;20054;-75
2023/06/28 00:49:31;;;;;;;11.82;3.30;;;;;;;;;;5033125;28;20042;-74
2023/06/28 00:51:57;;;;;;;11.75;3.78;;;;;;;;;;5034637;28;20526;-75
2023/06/28 00:54:24;;;;;;;11.88;3.47;;;;;;;;;;5032008;28;20046;-75
2023/06/28 00:56:51;;;;;;;11.82;3.30;;;;;;;;;;5032378;28;20045;-74
2023/06/28 00:59:17;;;;;;;10.52;3.65;;;;;;;;;;5030700;28;20050;-74
2023/06/28 01:01:43;;;;;;;9.32;3.67;;;;;;;;;;5033143;28;20041;-73
2023/06/28 01:04:09;;;;;;;13.20;3.75;;;;;;;;;;5034937;28;20037;-75
2023/06/28 01:06:37;;;;;;;11.15;4.00;;;;;;;;;;5032837;28;20041;-75
2023/06/28 01:09:04;;;;;;;11.23;4.10;;;;;;;;;;5035880;28;20053;-74
2023/06/28 01:11:31;;;;;;;13.25;3.90;;;;;;;;;;5033854;28;20091;-74
2023/06/28 01:13:58;;;;;;;10.93;3.88;;;;;;;;;;5028700;28;20048;-74
2023/06/28 01:16:24;;;;;;;9.50;3.65;;;;;;;;;;5028551;28;20451;-74
2023/06/28 01:18:50;;;;;;;14.85;4.07;;;;;;;;;;5035433;28;20098;-73
2023/06/28 01:21:17;;;;;;;11.00;3.47;;;;;;;;;;5035804;28;20045;-74
2023/06/28 01:23:43;;;;;;;10.43;3.60;;;;;;;;;;5029607;28;20076;-75
2023/06/28 01:26:09;;;;;;;13.65;4.40;;;;;;;;;;5035263;28;20041;-75
2023/06/28 01:28:36;;;;;;;15.40;3.80;;;;;;;;;;5027134;28;20518;-75
2023/06/28 01:31:06;;;;;;;9.80;3.53;;;;;;;;;;5032517;28;20442;-75
2023/06/28 01:33:32;;;;;;;12.50;3.70;;;;;;;;;;5035587;28;20057;-75
2023/06/28 01:35:58;;;;;;;12.00;3.45;;;;;;;;;;5035337;28;20072;-74
2023/06/28 01:38:25;;;;;;;9.77;3.40;;;;;;;;;;5033080;28;20075;-75
2023/06/28 01:40:52;;;;;;;9.90;3.65;;;;;;;;;;5034672;28;20389;-74
2023/06/28 01:43:18;;;;;;;11.30;3.58;;;;;;;;;;5035829;28;20077;-75
2023/06/28 01:45:44;;;;;;;10.05;3.40;;;;;;;;;;5031117;28;20507;-74
2023/06/28 01:48:10;;;;;;;9.07;3.38;;;;;;;;;;5032959;28;20062;-74
2023/06/28 01:50:37;;;;;;;13.75;3.85;;;;;;;;;;5031496;28;20484;-74
2023/06/28 01:53:04;;;;;;;10.38;3.13;;;;;;;;;;5035511;28;20034;-75
2023/06/28 01:55:30;;;;;;;7.45;3.22;;;;;;;;;;5030456;28;20046;-75
2023/06/28 01:57:58;;;;;;;7.78;3.53;;;;;;;;;;5033103;28;20077;-75
2023/06/28 02:00:24;;;;;;;9.50;3.55;;;;;;;;;;5033591;28;20045;-75
2023/06/28 02:02:52;;;;;;;10.15;3.10;;;;;;;;;;5040581;28;20045;-73
2023/06/28 02:05:19;;;;;;;10.65;3.67;;;;;;;;;;5037869;28;20454;-74
2023/06/28 02:07:45;;;;;;;9.15;3.55;;;;;;;;;;5037343;28;20045;-74
2023/06/28 02:10:11;;;;;;;11.95;3.63;;;;;;;;;;5034124;28;20041;-73
2023/06/28 02:12:37;;;;;;;11.95;4.18;;;;;;;;;;5034204;28;20056;-74
2023/06/28 02:15:03;;;;;;;6.70;3.03;;;;;;;;;;5033867;28;20086;-74
2023/06/28 02:17:31;;;;;;;9.52;3.40;;;;;;;;;;5035086;28;20091;-74
2023/06/28 02:19:57;;;;;;;13.55;4.25;;;;;;;;;;5033106;28;20046;-74
2023/06/28 02:22:24;;;;;;;10.50;3.70;;;;;;;;;;5034737;28;20071;-74
2023/06/28 02:24:50;;;;;;;12.82;3.88;;;;;;;;;;5034045;28;20098;-74
2023/06/28 02:27:16;;;;;;;9.75;3.63;;;;;;;;;;5033984;28;20063;-73
2023/06/28 02:29:42;;;;;;;11.45;4.18;;;;;;;;;;5034920;28;20300;-74
2023/06/28 02:32:08;;;;;;;10.98;3.28;;;;;;;;;;5033870;28;20090;-74
2023/06/28 02:34:35;;;;;;;9.93;3.60;;;;;;;;;;5033092;28;20045;-74
2023/06/28 02:37:01;;;;;;;12.45;4.03;;;;;;;;;;5035358;28;20045;-74
2023/06/28 02:39:27;;;;;;;14.30;3.80;;;;;;;;;;5036292;28;20052;-74
2023/06/28 02:41:53;;;;;;;10.85;3.80;;;;;;;;;;5036328;28;20046;-74
2023/06/28 02:44:19;;;;;;;10.38;3.75;;;;;;;;;;5029320;28;20132;-74
2023/06/28 02:46:45;;;;;;;10.18;3.67;;;;;;;;;;5027151;28;20045;-75
2023/06/28 02:49:11;;;;;;;11.35;3.55;;;;;;;;;;5036245;28;20045;-74
2023/06/28 02:51:37;;;;;;;13.60;4.07;;;;;;;;;;5032208;28;20077;-74
2023/06/28 02:54:03;;;;;;;10.48;3.70;;;;;;;;;;5036121;28;20056;-75
2023/06/28 02:56:29;;;;;;;10.80;3.80;;;;;;;;;;5034188;28;20427;-75
2023/06/28 02:58:59;;;;;;;11.68;4.40;;;;;;;;;;5031714;28;20053;-75
2023/06/28 03:01:25;;;;;;;12.50;4.00;;;;;;;;;;5032225;28;20057;-75
2023/06/28 03:03:52;;;;;;;11.27;4.18;;;;;;;;;;5031214;28;20546;-75
2023/06/28 03:06:19;;;;;;;12.15;4.43;;;;;;;;;;5031022;28;20053;-75
2023/06/28 03:08:45;;;;;;;12.05;4.53;;;;;;;;;;5032187;28;20072;-75
2023/06/28 03:11:11;;;;;;;12.45;4.50;;;;;;;;;;5034516;28;20133;-74
2023/06/28 03:13:37;;;;;;;13.70;5.00;;;;;;;;;;5033628;28;20527;-74
2023/06/28 03:16:04;;;;;;;10.60;4.95;;;;;;;;;;5033272;28;20057;-75
2023/06/28 03:18:31;;;;;;;10.38;4.57;;;;;;;;;;5033792;28;20127;-74
2023/06/28 03:20:57;;;;;;;11.00;4.68;;;;;;;;;;5029763;28;20053;-75
2023/06/28 03:23:23;;;;;;;10.68;4.72;;;;;;;;;;5034650;28;20135;-75
2023/06/28 03:25:49;;;;;;;11.43;4.65;;;;;;;;;;5034827;28;20053;-75
2023/06/28 03:28:16;;;;;;;10.90;4.75;;;;;;;;;;5034916;28;20118;-74
2023/06/28 03:30:42;;;;;;;12.60;4.63;;;;;;;;;;5032196;28;20049;-74
2023/06/28 03:33:08;;;;;;;13.48;4.85;;;;;;;;;;5029504;28;20046;-75
2023/06/28 03:35:34;;;;;;;12.35;5.50;;;;;;;;;;5033970;28;20046;-74
2023/06/28 03:38:00;;;;;;;11.73;4.68;;;;;;;;;;5034464;28;20056;-74
2023/06/28 03:40:26;;;;;;;13.10;5.13;;;;;;;;;;5034663;28;20042;-74
2023/06/28 03:42:53;;;;;;;10.73;4.95;;;;;;;;;;5032919;28;20124;-74
2023/06/28 03:45:19;;;;;;;12.20;5.10;;;;;;;;;;5034372;28;20049;-74
2023/06/28 03:47:45;;;;;;;12.93;5.55;;;;;;;;;;5033513;28;20041;-75
2023/06/28 03:50:11;;;;;;;10.27;4.70;;;;;;;;;;5031983;28;20406;-74
2023/06/28 03:52:37;;;;;;;11.13;4.97;;;;;;;;;;5031354;28;20399;-74
2023/06/28 03:55:03;;;;;;;12.90;5.00;;;;;;;;;;5026533;28;20108;-74
2023/06/28 03:57:30;;;;;;;15.55;5.45;;;;;;;;;;5028942;28;20057;-75
2023/06/28 03:59:56;;;;;;;9.57;4.95;;;;;;;;;;5031478;28;20053;-74
2023/06/28 04:02:22;;;;;;;13.65;5.53;;;;;;;;;;5033642;28;20123;-74
2023/06/28 04:04:48;;;;;;;11.93;5.05;;;;;;;;;;5032090;28;20037;-75
2023/06/28 04:07:15;;;;;;;11.88;5.20;;;;;;;;;;5032411;28;20112;-75
2023/06/28 04:09:43;;;;;;;12.32;5.38;;;;;;;;;;5034214;28;20054;-73
2023/06/28 04:12:09;;;;;;;12.48;5.25;;;;;;;;;;5033702;28;20045;-75
2023/06/28 04:14:35;;;;;;;11.93;5.53;;;;;;;;;;5026103;28;20046;-75
2023/06/28 04:17:01;;;;;;;12.35;5.63;;;;;;;;;;5023696;28;20065;-75
2023/06/28 04:19:27;;;;;;;13.35;5.00;;;;;;;;;;5038195;28;20057;-76
2023/06/28 04:21:53;;;;;;;13.80;5.60;;;;;;;;;;5041742;28;20033;-75
2023/06/28 04:24:20;;;;;;;11.40;5.28;;;;;;;;;;5039622;28;20526;-75
2023/06/28 04:26:46;;;;;;;13.18;5.47;;;;;;;;;;5038809;28;20407;-74
2023/06/28 04:29:13;;;;;;;11.38;5.30;;;;;;;;;;5036121;28;20046;-75
2023/06/28 04:31:39;;;;;;;12.75;5.35;;;;;;;;;;5037473;28;20498;-75
2023/06/28 04:34:05;;;;;;;12.40;5.93;;;;;;;;;;5036291;28;20041;-75
2023/06/28 04:36:31;;;;;;;13.07;5.03;;;;;;;;;;5036127;28;20049;-76
2023/06/28 04:38:57;;;;;;;11.75;5.18;;;;;;;;;;5035185;28;20053;-75
2023/06/28 04:41:25;;;;;;;11.18;5.35;;;;;;;;;;5038553;28;20044;-75
2023/06/28 04:43:56;;;;;;;11.32;5.72;;;;;;;;;;5034967;28;20073;-75
2023/06/28 04:46:23;;;;;;;14.23;5.72;;;;;;;;;;5018876;28;20041;-75
2023/06/28 04:48:52;;;;;;;10.70;5.78;;;;;;;;;;5038819;28;20413;-74
2023/06/28 04:51:18;;;;;;;12.70;5.97;;;;;;;;;;5036913;28;20049;-75
2023/06/28 04:53:44;;;;;;;9.25;5.25;;;;;;;;;;5037858;28;20076;-74
2023/06/28 04:56:10;;;;;;;12.48;6.03;;;;;;;;;;5035359;28;20105;-75
2023/06/28 04:58:37;;;;;;;12.43;5.65;;;;;;;;;;5035818;28;20057;-74
2023/06/28 05:01:05;;;;;;;11.20;5.63;;;;;;;;;;5023311;28;20049;-75
2023/06/28 05:03:31;;;;;;;12.35;6.15;;;;;;;;;;5036234;28;20053;-75
2023/06/28 05:05:57;;;;;;;14.05;6.13;;;;;;;;;;5036154;28;20049;-74
2023/06/28 05:08:24;;;;;;;11.55;6.07;;;;;;;;;;5036234;28;20132;-74
2023/06/28 05:10:50;;;;;;;13.13;5.68;;;;;;;;;;5018784;28;20049;-75
2023/06/28 05:13:16;;;;;;;11.27;6.15;;;;;;;;;;5027248;28;20038;-74
2023/06/28 05:15:43;;;;;;;13.43;6.57;;;;;;;;;;5032994;28;20056;-74
2023/06/28 05:18:09;;;;;;;13.13;6.30;;;;;;;;;;5034066;28;20419;-74
2023/06/28 05:20:35;;;;;;;9.98;6.05;;;;;;;;;;5024351;28;20049;-74
2023/06/28 05:23:12;;;;;;;11.13;6.50;;;;;;;;;;5015690;28;20129;-75
2023/06/28 05:25:38;;;;;;;13.48;5.50;;;;;;;;;;5030759;28;20053;-74
2023/06/28 05:28:05;;;;;;;11.27;5.78;;;;;;;;;;5100498;22;20421;-74
2023/06/28 05:30:31;;;;;;;10.68;5.50;;;;;;;;;;5014978;28;20080;-74
2023/06/28 05:32:58;;;;;;;13.70;5.75;;;;;;;;;;5016287;28;20053;-74
2023/06/28 05:35:25;;;;;;;11.73;5.38;;;;;;;;;;5014508;28;20046;-74
2023/06/28 05:37:52;;;;;;;8.88;4.57;;;;;;;;;;5016351;28;20121;-74
2023/06/28 05:40:18;;;;;;;11.20;5.55;;;;;;;;;;5015868;28;20077;-74
2023/06/28 05:42:44;;;;;;;11.95;5.40;;;;;;;;;;5020636;28;20128;-75
2023/06/28 05:45:11;;;;;;;12.60;5.75;;;;;;;;;;5009627;28;20046;-74
2023/06/28 05:47:37;;;;;;;11.55;5.80;;;;;;;;;;5015480;28;20052;-74
2023/06/28 05:50:03;;;;;;;15.48;6.82;;;;;;;;;;5011225;28;20053;-75
2023/06/28 05:52:29;;;;;;;11.85;6.13;;;;;;;;;;5014852;28;20450;-75
2023/06/28 05:54:55;;;;;;;9.70;5.40;;;;;;;;;;5015773;28;20053;-74
2023/06/28 05:57:21;;;;;;;11.63;5.72;;;;;;;;;;5015802;28;20038;-75
2023/06/28 05:59:47;;;;;;;12.75;5.90;;;;;;;;;;5014265;28;20176;-75
2023/06/28 06:02:14;;;;;;;12.85;5.60;;;;;;;;;;5004602;28;20050;-75
2023/06/28 06:04:40;;;;;;;11.75;5.68;;;;;;;;;;5003661;28;20129;-75
2023/06/28 06:07:06;;;;;;;10.30;5.35;;;;;;;;;;5012484;28;20404;-75
2023/06/28 06:09:32;;;;;;;11.32;5.10;;;;;;;;;;5013187;28;20046;-74
2023/06/28 06:11:58;;;;;;;8.52;4.50;;;;;;;;;;5015592;28;20045;-74
2023/06/28 06:14:25;;;;;;;7.70;3.65;;;;;;;;;;5015262;28;20120;-74
2023/06/28 06:16:51;;;;;;;7.13;3.78;;;;;;;;;;5005697;28;20132;-74
2023/06/28 06:19:17;;;;;;;7.75;3.75;;;;;;;;;;5016514;28;20049;-74
2023/06/28 06:21:43;;;;;;;8.55;3.60;;;;;;;;;;5017116;28;20490;-74
2023/06/28 06:24:09;;;;;;;7.88;3.42;;;;;;;;;;5018475;28;20097;-73
2023/06/28 06:26:35;;;;;;;7.63;3.33;;;;;;;;;;5014256;28;20050;-73
2023/06/28 06:29:02;;;;;;;11.02;3.20;;;;;;;;;;5014354;28;20054;-74
2023/06/28 06:31:28;;;;;;;7.97;3.42;;;;;;;;;;5016247;28;20544;-74
2023/06/28 06:34:00;;;;;;;7.85;2.95;;;;;;;;;;5019025;28;20064;-74
2023/06/28 06:36:26;;;;;;;9.55;3.20;;;;;;;;;;5004707;28;20123;-73
2023/06/28 06:38:52;;;;;;;6.95;2.90;;;;;;;;;;5011774;28;20045;-73
2023/06/28 06:41:18;;;;;;;7.00;2.95;;;;;;;;;;5016758;28;20518;-74
2023/06/28 06:43:44;;;;;;;8.10;3.25;;;;;;;;;;5015272;28;20100;-73
2023/06/28 06:46:10;;;;;;;9.40;3.30;;;;;;;;;;5014557;28;20050;-74
2023/06/28 06:48:37;;;;;;;8.65;3.00;;;;;;;;;;5014588;28;20042;-73
2023/06/28 06:51:07;;;;;;;8.00;2.88;;;;;;;;;;5015314;28;20042;-73
2023/06/28 06:53:33;;;;;;;7.53;3.15;;;;;;;;;;5016172;28;20121;-73
2023/06/28 06:55:59;;;;;;;7.05;2.85;;;;;;;;;;5006026;28;20061;-74
2023/06/28 06:58:25;;;;;;;9.55;3.22;;;;;;;;;;5018734;28;20071;-74
2023/06/28 07:00:52;;;;;;;11.05;3.42;;;;;;;;;;5005540;28;20087;-75
2023/06/28 07:03:20;;;;;;;9.75;3.67;;;;;;;;;;5002761;28;20110;-73
2023/06/28 07:05:47;;;;;;;9.60;3.50;;;;;;;;;;5014686;28;20094;-73
2023/06/28 07:08:13;;;;;;;7.97;3.28;;;;;;;;;;5016582;28;20038;-73
2023/06/28 07:10:39;;;;;;;10.38;3.53;;;;;;;;;;5015214;28;20046;-74
2023/06/28 07:13:05;;;;;;;9.43;3.50;;;;;;;;;;5017114;28;20041;-73
2023/06/28 07:15:31;;;;;;;10.65;4.20;;;;;;;;;;5016748;28;20540;-74
2023/06/28 07:17:57;;;;;;;11.02;4.47;;;;;;;;;;5015844;28;20122;-73
2023/06/28 07:20:23;;;;;;;10.00;4.70;;;;;;;;;;5010862;28;20051;-73
2023/06/28 07:22:50;;;;;;;13.35;4.13;;;;;;;;;;5016127;28;20092;-74
2023/06/28 07:25:16;;;;;;;9.52;3.92;;;;;;;;;;5014476;28;20046;-73
2023/06/28 07:27:42;;;;;;;11.52;3.92;;;;;;;;;;5013287;28;20065;-74
2023/06/28 07:30:08;;;;;;;9.25;4.38;;;;;;;;;;5014225;28;20116;-74
2023/06/28 07:32:34;;;;;;;12.90;4.00;;;;;;;;;;5015514;28;20046;-73
2023/06/28 07:35:01;;;;;;;10.63;3.65;;;;;;;;;;5014046;28;20050;-74
2023/06/28 07:37:27;;;;;;;10.50;3.88;;;;;;;;;;5007907;28;20046;-74
2023/06/28 07:39:53;;;;;;;10.07;4.10;;;;;;;;;;5011487;28;20052;-73
2023/06/28 07:42:23;;;;;;;8.80;4.03;;;;;;;;;;5019127;28;20042;-72
2023/06/28 07:44:49;;;;;;;9.98;4.40;;;;;;;;;;5013755;28;20514;-74
2023/06/28 07:47:16;;;;;;;12.32;4.70;;;;;;;;;;5014312;28;20052;-73
2023/06/28 07:49:42;;;;;;;11.30;4.57;;;;;;;;;;5014289;28;20108;-74
2023/06/28 07:52:09;;;;;;;12.90;4.25;;;;;;;;;;5016385;28;20049;-74
2023/06/28 07:54:35;;;;;;;10.43;4.85;;;;;;;;;;5014267;28;20044;-73
2023/06/28 07:57:01;;;;;;;12.60;4.68;;;;;;;;;;5011681;28;20046;-73
2023/06/28 07:59:27;;;;;;;12.05;5.47;;;;;;;;;;5015727;28;20104;-73
2023/06/28 08:01:54;;;;;;;14.10;5.72;;;;;;;;;;5015195;28;20050;-74
2023/06/28 08:04:20;;;;;;;11.30;4.80;;;;;;;;;;5023704;28;20460;-74
2023/06/28 08:06:46;;;;;;;11.18;5.40;;;;;;;;;;5030895;28;20748;-73
2023/06/28 08:09:12;;;;;;;10.20;5.18;;;;;;;;;;5025495;28;20045;-73
2023/06/28 08:11:38;;;;;;;13.73;6.10;;;;;;;;;;5019780;28;20058;-74
2023/06/28 08:14:05;;;;;;;9.88;5.57;;;;;;;;;;5015116;28;20115;-73
2023/06/28 08:16:31;;;;;;;14.18;5.80;;;;;;;;;;5017930;28;20042;-73
2023/06/28 08:18:57;;;;;;;11.02;5.85;;;;;;;;;;5018799;28;20147;-72
2023/06/28 08:21:23;;;;;;;14.20;6.25;;;;;;;;;;5016917;28;20042;-73
2023/06/28 08:23:49;;;;;;;12.55;6.25;;;;;;;;;;5011366;28;20053;-73
2023/06/28 08:26:15;;;;;;;14.50;7.18;;;;;;;;;;5017215;28;20046;-73
2023/06/28 08:28:42;;;;;;;14.70;6.43;;;;;;;;;;5017469;28;20053;-73
2023/06/28 08:31:08;;;;;;;12.60;6.45;;;;;;;;;;5016259;28;20426;-73
2023/06/28 08:33:35;;;;;;;16.42;6.57;;;;;;;;;;5017113;28;20500;-72
2023/06/28 08:36:01;;;;;;;11.00;7.00;;;;;;;;;;5018685;28;20057;-73
2023/06/28 08:38:27;;;;;;;10.30;6.95;;;;;;;;;;5013326;28;20046;-73
2023/06/28 08:40:53;;;;;;;13.93;7.00;;;;;;;;;;5014623;28;20046;-74
2023/06/28 08:43:21;;;;;;;11.45;6.97;;;;;;;;;;5017738;28;20392;-74
2023/06/28 08:45:47;;;;;;;11.80;6.95;;;;;;;;;;5018148;28;20098;-73
2023/06/28 08:48:14;;;;;;;14.05;7.32;;;;;;;;;;5016398;28;20049;-73
2023/06/28 08:50:43;;;;;;;13.57;7.38;;;;;;;;;;5018060;28;20033;-73
2023/06/28 08:53:12;;;;;;;12.45;6.60;;;;;;;;;;5012128;28;20045;-73
2023/06/28 08:55:38;;;;;;;10.82;6.72;;;;;;;;;;5017257;28;20201;-73
2023/06/28 08:58:04;;;;;;;12.70;6.70;;;;;;;;;;5017170;28;20052;-74
2023/06/28 09:00:30;;;;;;;13.15;6.22;;;;;;;;;;5000822;28;20089;-73
2023/06/28 09:02:57;;;;;;;12.43;6.78;;;;;;;;;;5013012;28;20055;-74
2023/06/28 09:05:23;;;;;;;12.88;6.55;;;;;;;;;;5018757;28;20124;-72
2023/06/28 09:07:51;;;;;;;12.10;6.57;;;;;;;;;;5013627;28;20038;-73
2023/06/28 09:10:17;;;;;;;13.98;6.50;;;;;;;;;;5015362;28;20060;-74
2023/06/28 09:12:44;;;;;;;13.45;6.72;;;;;;;;;;5017241;28;20512;-74
2023/06/28 09:15:10;;;;;;;13.38;6.30;;;;;;;;;;5014937;28;20044;-73
2023/06/28 09:17:36;;;;;;;14.63;6.38;;;;;;;;;;5007999;28;20092;-75
2023/06/28 09:20:16;;;;;;;9.50;5.55;;;;;;;;;;5017156;28;20033;-74
2023/06/28 09:22:42;;;;;;;13.23;5.72;;;;;;;;;;5016898;28;20046;-73
2023/06/28 09:25:09;;;;;;;10.70;6.15;;;;;;;;;;5016225;28;20076;-73
2023/06/28 09:27:35;;;;;;;10.52;6.47;;;;;;;;;;5018405;28;20061;-74
2023/06/28 09:30:01;;;;;;;12.82;6.63;;;;;;;;;;5019321;28;20046;-74
2023/06/28 09:32:40;;;;;;;14.57;7.28;;;;;;;;;;5016107;28;20068;-73
2023/06/28 09:35:10;;;;;;;12.05;7.10;;;;;;;;;;5016701;28;20045;-73
2023/06/28 09:37:38;;;;;;;18.17;6.22;;;;;;;;;;5017738;28;20070;-73
2023/06/28 09:40:06;;;;;;;21.65;7.00;;;;;;;;;;5014954;28;20096;-72
2023/06/28 09:42:32;;;;;;;20.77;7.50;;;;;;;;;;5018501;28;20434;-73
2023/06/28 09:44:58;;;;;;;11.07;7.40;;;;;;;;;;5016766;28;20050;-72
2023/06/28 09:47:31;;;;;;;11.98;7.25;;;;;;;;;;5015614;28;20298;-74
2023/06/28 09:49:58;;;;;;;14.77;6.32;;;;;;;;;;5017030;28;20072;-74
2023/06/28 09:52:24;;;;;;;16.52;7.10;;;;;;;;;;5007857;28;20076;-73
2023/06/28 09:54:50;;;;;;;15.13;7.68;;;;;;;;;;5015486;28;20046;-74
2023/06/28 09:57:16;;;;;;;11.80;7.28;;;;;;;;;;5017256;28;20042;-74
2023/06/28 09:59:44;;;;;;;15.38;6.68;;;;;;;;;;5017075;28;20487;-73
2023/06/28 10:02:10;;;;;;;12.48;7.18;;;;;;;;;;5020222;28;20415;-73
2023/06/28 10:04:40;;;;;;;12.10;7.40;;;;;;;;;;5013609;28;20076;-74
2023/06/28 10:07:07;;;;;;;11.48;7.10;;;;;;;;;;5011997;28;20046;-73
2023/06/28 10:09:37;;;;;;;12.93;8.48;;;;;;;;;;5014677;28;20046;-73
2023/06/28 10:12:14;;;;;;;12.33;7.87;;;;;;;;;;5015484;28;20064;-73
2023/06/28 10:14:42;;;;;;;12.45;7.55;;;;;;;;;;5016411;28;20500;-74
2023/06/28 10:17:08;;;;;;;12.68;7.93;;;;;;;;;;5017698;28;20500;-74
2023/06/28 10:19:34;;;;;;;10.43;8.38;;;;;;;;;;5003928;28;20037;-73
2023/06/28 10:22:01;;;;;;;11.93;7.85;;;;;;;;;;5028981;28;20045;-73
2023/06/28 10:24:31;;;;;;;12.20;7.15;;;;;;;;;;5032689;28;20104;-74
2023/06/28 10:26:58;;;;;;;14.77;8.50;;;;;;;;;;5031734;28;20116;-74
2023/06/28 10:29:25;;;;;;;15.98;9.85;;;;;;;;;;5024393;28;20738;-74
2023/06/28 10:31:52;;;;;;;13.27;8.88;;;;;;;;;;5017313;28;20512;-74
2023/06/28 10:34:19;;;;;;;17.08;9.55;;;;;;;;;;5017084;28;20053;-75
2023/06/28 10:36:45;;;;;;;14.43;9.73;;;;;;;;;;5018479;28;20105;-74
2023/06/28 10:39:11;;;;;;;14.82;9.98;;;;;;;;;;5019600;28;20096;-74
2023/06/28 10:41:38;;;;;;;14.88;10.77;;;;;;;;;;5017920;28;20046;-74
2023/06/28 10:44:05;;;;;;;16.77;10.13;;;;;;;;;;5016936;28;20046;-74
2023/06/28 10:46:31;;;;;;;16.17;10.15;;;;;;;;;;5015755;28;20511;-73
2023/06/28 10:49:03;;;;;;;18.75;11.50;;;;;;;;;;5017437;28;20504;-73
2023/06/28 10:51:33;;;;;;;17.00;11.57;;;;;;;;;;5018549;28;20034;-74
2023/06/28 10:54:15;;;;;;;24.75;12.95;;;;;;;;;;5018283;28;20049;-73
2023/06/28 10:56:51;;;;;;;17.00;11.02;;;;;;;;;;5015919;28;20073;-73
2023/06/28 10:59:18;;;;;;;17.02;10.70;;;;;;;;;;5015076;28;20068;-80
2023/06/28 11:01:53;;;;;;;14.32;10.32;;;;;;;;;;5023071;28;20046;-78
2023/06/28 11:04:21;;;;;;;19.20;11.90;;;;;;;;;;5026621;28;20046;-82
2023/06/28 11:06:47;;;;;;;16.20;11.68;;;;;;;;;;5024831;28;20050;-74
2023/06/28 11:09:15;;;;;;;23.92;13.45;;;;;;;;;;5015188;28;20515;-74
2023/06/28 11:11:42;;;;;;;19.10;13.23;;;;;;;;;;4998159;28;20054;-72
2023/06/28 11:14:20;;;;;;;19.73;13.00;;;;;;;;;;5015728;28;20516;-73
2023/06/28 11:16:50;;;;;;;20.33;13.38;;;;;;;;;;5015754;28;20057;-74
2023/06/28 11:19:18;;;;;;;18.33;12.07;;;;;;;;;;5015695;28;20065;-74
2023/06/28 11:21:48;;;;;;;16.50;11.65;;;;;;;;;;5015529;28;20492;-73
2023/06/28 11:24:14;;;;;;;17.92;11.80;;;;;;;;;;5017634;28;20053;-74
2023/06/28 11:26:42;;;;;;;19.25;13.05;;;;;;;;;;5015617;28;20053;-75
2023/06/28 11:29:18;;;;;;;20.30;13.68;;;;;;;;;;5019320;28;20057;-77
2023/06/28 11:31:48;;;;;;;21.58;13.07;;;;;;;;;;5003194;28;20401;-74
2023/06/28 11:34:15;;;;;;;18.02;12.65;;;;;;;;;;5017381;28;20458;-74
2023/06/28 11:36:43;;;;;;;19.63;14.20;;;;;;;;;;5020435;28;20096;-75
2023/06/28 11:39:16;;;;;;;19.88;14.40;;;;;;;;;;5019416;28;20097;-75
2023/06/28 11:41:43;;;;;;;17.20;13.40;;;;;;;;;;5021365;28;20074;-75
2023/06/28 11:44:09;;;;;;;23.15;13.35;;;;;;;;;;5022410;28;20060;-74
2023/06/28 11:46:36;;;;;;;24.83;15.38;;;;;;;;;;5019988;28;20050;-76
2023/06/28 11:49:03;;;;;;;21.60;14.35;;;;;;;;;;5019100;28;20054;-74
2023/06/28 11:51:30;;;;;;;20.15;13.48;;;;;;;;;;5019400;28;20046;-74
2023/06/28 11:53:56;;;;;;;23.23;13.68;;;;;;;;;;5021380;28;20057;-75
2023/06/28 11:56:34;;;;;;;19.02;14.50;;;;;;;;;;5021475;28;20555;-74
2023/06/28 11:59:13;;;;;;;22.58;14.77;;;;;;;;;;5021635;28;20619;-76
2023/06/28 12:01:39;;;;;;;31.50;13.75;;;;;;;;;;5021297;28;20092;-73
2023/06/28 12:04:15;;;;;;;21.75;13.98;;;;;;;;;;5019112;28;20053;-74
2023/06/28 12:06:41;;;;;;;23.98;14.77;;;;;;;;;;5021275;28;20531;-74
2023/06/28 12:09:18;;;;;;;23.73;14.50;;;;;;;;;;5020939;28;20042;-74
2023/06/28 12:11:54;;;;;;;29.52;12.82;;;;;;;;;;5017940;28;20061;-75
2023/06/28 12:14:21;;;;;;;21.58;13.35;;;;;;;;;;5020991;28;20042;-75
2023/06/28 12:16:50;;;;;;;17.98;13.10;;;;;;;;;;5020887;28;20125;-75
2023/06/28 12:19:16;;;;;;;16.92;13.02;;;;;;;;;;5019883;28;20056;-75
2023/06/28 12:21:43;;;;;;;20.60;13.65;;;;;;;;;;5020670;28;20050;-75
2023/06/28 12:24:24;;;;;;;16.77;11.95;;;;;;;;;;5018973;28;20085;-75
2023/06/28 12:26:51;;;;;;;19.85;12.85;;;;;;;;;;5023541;28;20077;-76
2023/06/28 12:29:21;;;;;;;17.48;12.05;;;;;;;;;;5028744;28;20057;-75
2023/06/28 12:31:48;;;;;;;16.25;12.45;;;;;;;;;;5025222;28;20041;-74
2023/06/28 12:34:15;;;;;;;14.98;12.60;;;;;;;;;;5021163;28;20045;-74
2023/06/28 12:36:41;;;;;;;17.65;12.95;;;;;;;;;;5016412;28;20093;-74
2023/06/28 12:39:10;;;;;;;19.08;13.13;;;;;;;;;;5020437;28;20050;-75
2023/06/28 12:41:36;;;;;;;15.27;12.85;;;;;;;;;;5019735;28;20073;-74
2023/06/28 12:44:02;;;;;;;13.93;12.13;;;;;;;;;;5019585;28;20048;-75
2023/06/28 12:46:28;;;;;;;20.08;13.15;;;;;;;;;;5021429;28;20038;-75
2023/06/28 12:48:55;;;;;;;18.70;12.60;;;;;;;;;;5022984;28;20496;-74
2023/06/28 12:51:22;;;;;;;18.58;12.77;;;;;;;;;;5022306;28;20050;-76
2023/06/28 12:53:48;;;;;;;13.45;11.50;;;;;;;;;;5018065;28;20389;-75
2023/06/28 12:56:14;;;;;;;14.00;11.82;;;;;;;;;;5019620;28;20053;-74
2023/06/28 12:58:40;;;;;;;14.95;11.80;;;;;;;;;;5020885;28;20399;-76
2023/06/28 13:01:06;;;;;;;17.60;13.05;;;;;;;;;;5020040;28;20057;-74
2023/06/28 13:03:32;;;;;;;15.18;11.57;;;;;;;;;;5018246;28;20368;-75
2023/06/28 13:05:59;;;;;;;14.52;12.23;;;;;;;;;;5021161;28;20124;-74
2023/06/28 13:08:29;;;;;;;14.02;11.30;;;;;;;;;;5019934;28;20057;-74
2023/06/28 13:10:56;;;;;;;12.60;11.13;;;;;;;;;;5020280;28;20042;-75
2023/06/28 13:13:22;;;;;;;12.77;11.40;;;;;;;;;;5018462;28;20096;-75
2023/06/28 13:15:48;;;;;;;12.98;11.02;;;;;;;;;;5019144;28;20053;-75
2023/06/28 13:18:14;;;;;;;11.63;10.40;;;;;;;;;;5017714;28;20100;-75
2023/06/28 13:20:40;;;;;;;12.80;10.80;;;;;;;;;;5018241;28;20117;-74
2023/06/28 13:23:06;;;;;;;12.45;11.15;;;;;;;;;;5019864;28;20161;-75
2023/06/28 13:25:32;;;;;;;13.85;11.30;;;;;;;;;;5020885;28;20373;-74
2023/06/28 13:27:58;;;;;;;14.30;10.70;;;;;;;;;;5019402;28;20046;-75
2023/06/28 13:30:24;;;;;;;12.30;10.10;;;;;;;;;;5020643;28;20038;-74
2023/06/28 13:32:52;;;;;;;13.25;11.02;;;;;;;;;;5017663;28;20131;-75
2023/06/28 13:35:18;;;;;;;14.07;10.43;;;;;;;;;;5009406;28;20057;-76
2023/06/28 13:37:45;;;;;;;13.68;12.27;;;;;;;;;;5017805;28;20088;-74
2023/06/28 13:40:12;;;;;;;12.25;10.95;;;;;;;;;;5018122;28;20550;-76
2023/06/28 13:42:38;;;;;;;13.15;10.93;;;;;;;;;;5019309;28;20057;-75
2023/06/28 13:45:05;;;;;;;13.15;10.18;;;;;;;;;;5018087;28;20432;-74
2023/06/28 13:47:31;;;;;;;12.35;10.43;;;;;;;;;;5018875;28;20034;-75
2023/06/28 13:49:58;;;;;;;12.77;11.27;;;;;;;;;;5018494;28;20488;-74
2023/06/28 13:52:24;;;;;;;14.48;12.95;;;;;;;;;;5020182;28;20085;-75
2023/06/28 13:54:51;;;;;;;13.65;11.38;;;;;;;;;;5019350;28;20045;-76
2023/06/28 13:57:17;;;;;;;13.43;11.55;;;;;;;;;;5018859;28;20057;-74
2023/06/28 13:59:43;;;;;;;12.98;11.23;;;;;;;;;;5018293;28;20045;-74
2023/06/28 14:02:10;;;;;;;14.98;12.10;;;;;;;;;;5020939;28;20057;-74
2023/06/28 14:04:36;;;;;;;17.75;12.35;;;;;;;;;;5020693;28;20099;-75
2023/06/28 14:07:02;;;;;;;14.52;11.25;;;;;;;;;;5020610;28;20101;-74
2023/06/28 14:09:28;;;;;;;12.30;10.98;;;;;;;;;;5007762;28;20065;-74
2023/06/28 14:11:54;;;;;;;16.45;13.57;;;;;;;;;;5015948;28;20038;-74
2023/06/28 14:14:20;;;;;;;15.65;13.13;;;;;;;;;;5016055;28;20092;-74
2023/06/28 14:16:46;;;;;;;15.82;13.82;;;;;;;;;;5014949;28;20088;-74
2023/06/28 14:19:12;;;;;;;15.50;13.85;;;;;;;;;;5010783;28;20045;-74
2023/06/28 14:21:38;;;;;;;15.68;12.82;;;;;;;;;;5020159;28;20101;-75
2023/06/28 14:24:04;;;;;;;16.40;13.55;;;;;;;;;;5028108;28;20041;-74
2023/06/28 14:26:30;;;;;;;15.95;14.23;;;;;;;;;;5020993;28;20068;-75